Time;durP1;ratioP1;P1;durP2;ratioP2;P2;SDS_P1;SDS_P2;PMS_P1;PMS_P2;Temp;Humidity;BMP_temperature;BMP_pressure;BME280_temperature;BME280_humidity;BME280_pressure;Samples;Min_cycle;Max_cycle;Signal;HPM_P1;HPM_P2
2022/10/18 00:00:51;;;;;;;;;;;12.80;99.90;;;;;;5103029;28;19928;-70
2022/10/18 00:03:17;;;;;;;;;;;12.70;99.90;;;;;;5103267;28;19920;-70
2022/10/18 00:05:44;;;;;;;;;;;12.70;99.90;;;;;;5103019;28;19920;-69
2022/10/18 00:08:10;;;;;;;;;;;12.70;99.90;;;;;;5102585;28;19926;-71
2022/10/18 00:10:38;;;;;;;;;;;12.70;99.90;;;;;;5103066;28;20284;-70
2022/10/18 00:13:05;;;;;;;;;;;12.70;99.90;;;;;;5102965;28;19920;-70
2022/10/18 00:15:32;;;;;;;;;;;12.70;99.90;;;;;;5102571;28;19979;-70
2022/10/18 00:17:58;;;;;;;;;;;12.60;99.90;;;;;;5103035;28;20276;-69
2022/10/18 00:20:25;;;;;;;;;;;12.60;99.90;;;;;;5103220;28;20131;-70
2022/10/18 00:22:51;;;;;;;;;;;12.60;99.90;;;;;;5102710;28;19988;-70
2022/10/18 00:25:18;;;;;;;;;;;12.50;99.90;;;;;;5102723;28;19920;-69
2022/10/18 00:27:46;;;;;;;;;;;12.50;99.90;;;;;;5102405;28;19927;-69
2022/10/18 00:30:13;;;;;;;;;;;12.50;99.90;;;;;;5103732;28;19943;-69
2022/10/18 00:32:40;;;;;;;;;;;12.50;99.90;;;;;;5107452;28;19994;-70
2022/10/18 00:35:08;;;;;;;;;;;12.40;99.90;;;;;;5107114;28;19920;-70
2022/10/18 00:37:35;;;;;;;;;;;12.40;99.90;;;;;;5107385;28;20119;-70
2022/10/18 00:40:04;;;;;;;;;;;12.40;99.90;;;;;;5106412;28;19926;-71
2022/10/18 00:42:32;;;;;;;;;;;12.30;99.90;;;;;;5107330;28;19920;-70
2022/10/18 00:45:17;;;;;;;;;;;12.30;99.90;;;;;;5106505;28;19920;-69
2022/10/18 00:47:45;;;;;;;;;;;12.30;99.90;;;;;;5107233;28;19920;-69
2022/10/18 00:50:12;;;;;;;;;;;12.30;99.90;;;;;;5106943;28;19926;-70
2022/10/18 00:52:40;;;;;;;;;;;12.30;99.90;;;;;;5106707;28;20225;-70
2022/10/18 00:55:07;;;;;;;;;;;12.30;99.90;;;;;;5106414;28;19920;-70
2022/10/18 00:57:34;;;;;;;;;;;12.30;99.90;;;;;;5106771;28;19983;-69
2022/10/18 01:00:01;;;;;;;;;;;12.20;99.90;;;;;;5106605;28;19920;-69
2022/10/18 01:02:29;;;;;;;;;;;12.20;99.90;;;;;;5106853;28;19926;-69
2022/10/18 01:04:55;;;;;;;;;;;12.20;99.90;;;;;;5106783;28;19926;-70
2022/10/18 01:07:44;;;;;;;;;;;12.20;99.90;;;;;;5105835;28;19992;-70
2022/10/18 01:10:17;;;;;;;;;;;12.10;99.90;;;;;;5082722;28;19927;-70
2022/10/18 01:12:50;;;;;;;;;;;12.10;99.90;;;;;;5090607;28;19927;-70
2022/10/18 01:15:29;;;;;;;;;;;12.10;99.90;;;;;;5094066;28;19927;-73
2022/10/18 01:17:59;;;;;;;;;;;12.10;99.90;;;;;;5088527;28;20200;-69
2022/10/18 01:20:54;;;;;;;;;;;12.10;99.90;;;;;;5101516;28;20208;-69
2022/10/18 01:23:34;;;;;;;;;;;12.00;99.90;;;;;;5105648;28;19920;-70
2022/10/18 01:26:06;;;;;;;;;;;12.00;99.90;;;;;;5105856;28;19920;-69
2022/10/18 01:28:43;;;;;;;;;;;12.00;99.90;;;;;;5105955;28;20134;-70
2022/10/18 01:31:13;;;;;;;;;;;11.90;99.90;;;;;;5106137;28;20204;-70
2022/10/18 01:33:43;;;;;;;;;;;11.90;99.90;;;;;;5106230;28;19920;-69
2022/10/18 01:36:13;;;;;;;;;;;11.90;99.90;;;;;;5105300;28;19920;-70
2022/10/18 01:38:41;;;;;;;;;;;11.90;99.90;;;;;;5106210;28;19927;-70
2022/10/18 01:41:08;;;;;;;;;;;11.90;99.90;;;;;;5105948;28;19982;-70
2022/10/18 01:43:36;;;;;;;;;;;11.90;99.90;;;;;;5106011;28;19940;-70
2022/10/18 01:46:15;;;;;;;;;;;11.90;99.90;;;;;;5104819;28;19920;-70
2022/10/18 01:48:41;;;;;;;;;;;11.90;99.90;;;;;;5106158;28;19920;-70
2022/10/18 01:51:09;;;;;;;;;;;11.90;99.90;;;;;;5105995;28;19987;-70
2022/10/18 01:53:35;;;;;;;;;;;11.90;99.90;;;;;;5105832;28;19920;-69
2022/10/18 01:56:18;;;;;;;;;;;11.80;99.90;;;;;;5105208;28;20259;-70
2022/10/18 01:58:48;;;;;;;;;;;11.80;99.90;;;;;;5105475;28;19931;-69
2022/10/18 02:01:19;;;;;;;;;;;11.80;99.90;;;;;;5105770;28;20107;-69
2022/10/18 02:03:47;;;;;;;;;;;11.80;99.90;;;;;;5105461;28;19926;-69
2022/10/18 02:06:19;;;;;;;;;;;11.80;99.90;;;;;;5104462;28;19984;-70
2022/10/18 02:08:48;;;;;;;;;;;11.80;99.90;;;;;;5105062;28;19979;-69
2022/10/18 02:11:15;;;;;;;;;;;11.70;99.90;;;;;;5105529;28;20153;-70
2022/10/18 02:13:44;;;;;;;;;;;11.70;99.90;;;;;;5105385;28;19926;-70
2022/10/18 02:16:13;;;;;;;;;;;11.70;99.90;;;;;;5104469;28;19982;-70
2022/10/18 02:18:41;;;;;;;;;;;11.70;99.90;;;;;;5105424;28;19983;-69
2022/10/18 02:21:10;;;;;;;;;;;11.70;99.90;;;;;;5105459;28;19927;-70
2022/10/18 02:23:37;;;;;;;;;;;11.60;99.90;;;;;;5105044;28;19926;-70
2022/10/18 02:26:04;;;;;;;;;;;11.60;99.90;;;;;;5105083;28;19920;-69
2022/10/18 02:28:31;;;;;;;;;;;11.60;99.90;;;;;;5105291;28;19946;-70
2022/10/18 02:31:00;;;;;;;;;;;11.60;99.90;;;;;;5105093;28;19983;-69
2022/10/18 02:33:30;;;;;;;;;;;11.60;99.90;;;;;;5104570;28;19927;-70
2022/10/18 02:36:01;;;;;;;;;;;11.50;99.90;;;;;;5104696;28;19920;-69
2022/10/18 02:38:29;;;;;;;;;;;11.50;99.90;;;;;;5104813;28;20107;-70
2022/10/18 02:40:56;;;;;;;;;;;11.50;99.90;;;;;;5105098;28;19919;-69
2022/10/18 02:43:24;;;;;;;;;;;11.50;99.90;;;;;;5105124;28;19927;-70
2022/10/18 02:45:50;;;;;;;;;;;11.50;99.90;;;;;;5104658;28;19927;-69
2022/10/18 02:48:17;;;;;;;;;;;11.50;99.90;;;;;;5103873;28;19920;-71
2022/10/18 02:50:43;;;;;;;;;;;11.40;99.90;;;;;;5104690;28;19983;-71
2022/10/18 02:53:11;;;;;;;;;;;11.40;99.90;;;;;;5103548;28;20263;-71
2022/10/18 02:55:38;;;;;;;;;;;11.40;99.90;;;;;;5116795;22;19983;-72
2022/10/18 02:58:05;;;;;;;;;;;11.40;99.90;;;;;;5104137;28;20239;-71
2022/10/18 03:00:31;;;;;;;;;;;11.40;99.90;;;;;;5103932;28;19987;-72
2022/10/18 03:02:58;;;;;;;;;;;11.40;99.90;;;;;;5108366;28;19942;-72
2022/10/18 03:05:24;;;;;;;;;;;11.40;99.90;;;;;;5111702;28;19983;-71
2022/10/18 03:07:51;;;;;;;;;;;11.40;99.90;;;;;;5103482;28;19983;-72
2022/10/18 03:10:19;;;;;;;;;;;11.50;99.90;;;;;;5104537;28;19920;-71
2022/10/18 03:12:45;;;;;;;;;;;11.50;99.90;;;;;;5104099;28;19920;-71
2022/10/18 03:15:12;;;;;;;;;;;11.50;99.90;;;;;;5103964;28;20106;-71
2022/10/18 03:17:41;;;;;;;;;;;11.50;99.90;;;;;;5103045;28;19987;-71
2022/10/18 03:20:08;;;;;;;;;;;11.50;99.90;;;;;;5092334;28;19920;-71
2022/10/18 03:22:34;;;;;;;;;;;11.50;99.90;;;;;;5083905;28;19927;-71
2022/10/18 03:25:01;;;;;;;;;;;11.50;99.90;;;;;;5096637;28;19943;-71
2022/10/18 03:27:29;;;;;;;;;;;11.50;99.90;;;;;;5104229;28;19962;-71
2022/10/18 03:29:55;;;;;;;;;;;11.50;99.90;;;;;;5104111;28;19920;-71
2022/10/18 03:32:22;;;;;;;;;;;11.50;99.90;;;;;;5104164;28;20166;-71
2022/10/18 03:34:49;;;;;;;;;;;11.50;99.90;;;;;;5103638;28;19920;-72
2022/10/18 03:37:18;;;;;;;;;;;11.50;99.90;;;;;;5103498;28;19983;-70
2022/10/18 03:39:45;;;;;;;;;;;11.50;99.90;;;;;;5104166;28;19983;-71
2022/10/18 03:42:11;;;;;;;;;;;11.50;99.90;;;;;;5104120;28;19920;-71
2022/10/18 03:44:39;;;;;;;;;;;11.60;99.90;;;;;;5103873;28;19979;-72
2022/10/18 03:47:07;;;;;;;;;;;11.60;99.90;;;;;;5063273;28;19921;-72
2022/10/18 03:49:33;;;;;;;;;;;11.60;99.90;;;;;;5063717;28;19988;-71
2022/10/18 03:52:00;;;;;;;;;;;11.60;99.90;;;;;;5063334;28;19984;-71
2022/10/18 03:54:27;;;;;;;;;;;11.60;99.90;;;;;;5063303;28;20009;-72
2022/10/18 03:56:53;;;;;;;;;;;11.60;99.90;;;;;;5063311;28;19927;-71
2022/10/18 03:59:21;;;;;;;;;;;11.60;99.90;;;;;;5070209;28;20106;-71
2022/10/18 04:01:49;;;;;;;;;;;11.60;99.90;;;;;;5103535;28;19920;-71
2022/10/18 04:04:15;;;;;;;;;;;11.60;99.90;;;;;;5104675;28;19920;-72
2022/10/18 04:06:44;;;;;;;;;;;11.60;99.90;;;;;;5100271;28;20279;-72
2022/10/18 04:09:11;;;;;;;;;;;11.60;99.90;;;;;;5087558;28;19993;-71
2022/10/18 04:11:37;;;;;;;;;;;11.60;99.90;;;;;;5087209;28;19920;-72
2022/10/18 04:14:04;;;;;;;;;;;11.60;99.90;;;;;;5087245;28;19920;-71
2022/10/18 04:16:32;;;;;;;;;;;11.60;99.90;;;;;;5086089;28;20159;-72
2022/10/18 04:18:59;;;;;;;;;;;11.60;99.90;;;;;;5087056;28;20115;-71
2022/10/18 04:21:26;;;;;;;;;;;11.60;99.90;;;;;;5087426;28;19920;-71
2022/10/18 04:23:53;;;;;;;;;;;11.60;99.90;;;;;;5087186;28;19999;-72
2022/10/18 04:26:19;;;;;;;;;;;11.60;99.90;;;;;;5086706;28;19992;-71
2022/10/18 04:28:46;;;;;;;;;;;11.70;99.90;;;;;;5087157;28;19926;-71
2022/10/18 04:31:12;;;;;;;;;;;11.70;99.90;;;;;;5086882;28;19920;-72
2022/10/18 04:33:39;;;;;;;;;;;11.60;99.90;;;;;;5086729;28;20156;-71
2022/10/18 04:36:07;;;;;;;;;;;11.60;99.90;;;;;;5085205;28;20230;-71
2022/10/18 04:38:34;;;;;;;;;;;11.60;99.90;;;;;;5086475;28;19920;-71
2022/10/18 04:41:01;;;;;;;;;;;11.60;99.90;;;;;;5086651;28;20123;-71
2022/10/18 04:43:27;;;;;;;;;;;11.60;99.90;;;;;;5100591;28;19926;-71
2022/10/18 04:45:56;;;;;;;;;;;11.60;99.90;;;;;;5105857;28;19927;-71
2022/10/18 04:48:22;;;;;;;;;;;11.70;99.90;;;;;;5106811;28;19988;-71
2022/10/18 04:50:49;;;;;;;;;;;11.60;99.90;;;;;;5106770;28;19982;-71
2022/10/18 04:53:18;;;;;;;;;;;11.70;99.90;;;;;;5106905;28;19959;-71
2022/10/18 04:55:45;;;;;;;;;;;11.60;99.90;;;;;;5106041;28;19940;-72
2022/10/18 04:58:12;;;;;;;;;;;11.60;99.90;;;;;;5106779;28;19920;-71
2022/10/18 05:00:39;;;;;;;;;;;11.60;99.90;;;;;;5103668;28;20238;-71
2022/10/18 05:03:05;;;;;;;;;;;11.60;99.90;;;;;;5066216;28;19988;-71
2022/10/18 05:05:32;;;;;;;;;;;11.70;99.90;;;;;;5065941;28;19987;-70
2022/10/18 05:07:58;;;;;;;;;;;11.70;99.90;;;;;;5066706;28;19988;-70
2022/10/18 05:10:30;;;;;;;;;;;11.70;99.90;;;;;;5065854;28;19984;-72
2022/10/18 05:12:56;;;;;;;;;;;11.70;99.90;;;;;;5066154;28;19921;-72
2022/10/18 05:15:23;;;;;;;;;;;11.70;99.90;;;;;;5065650;28;20007;-72
2022/10/18 05:17:49;;;;;;;;;;;11.70;99.90;;;;;;5065588;28;20286;-73
2022/10/18 05:20:16;;;;;;;;;;;11.70;99.90;;;;;;5065610;28;19992;-72
2022/10/18 05:22:43;;;;;;;;;;;11.70;99.90;;;;;;5066170;28;19992;-71
2022/10/18 05:25:09;;;;;;;;;;;11.70;99.90;;;;;;5065927;28;19987;-74
2022/10/18 05:27:37;;;;;;;;;;;11.60;99.90;;;;;;5106006;28;19920;-72
2022/10/18 05:30:04;;;;;;;;;;;11.60;99.90;;;;;;5089090;28;19920;-71
2022/10/18 05:32:31;;;;;;;;;;;11.60;99.90;;;;;;5085658;28;19920;-72
2022/10/18 05:34:58;;;;;;;;;;;11.60;99.90;;;;;;5085070;28;19920;-71
2022/10/18 05:37:24;;;;;;;;;;;11.60;99.90;;;;;;5085651;28;19987;-72
2022/10/18 05:39:51;;;;;;;;;;;11.70;99.90;;;;;;5085743;28;20166;-72
2022/10/18 05:42:17;;;;;;;;;;;11.70;99.90;;;;;;5085558;28;19999;-71
2022/10/18 05:44:46;;;;;;;;;;;11.70;99.90;;;;;;5085936;28;20003;-72
2022/10/18 05:47:12;;;;;;;;;;;11.70;99.90;;;;;;5087202;28;20114;-73
2022/10/18 05:49:39;;;;;;;;;;;11.70;99.90;;;;;;5085422;28;19920;-72
2022/10/18 05:52:08;;;;;;;;;;;11.70;99.90;;;;;;5085066;28;19921;-73
2022/10/18 05:54:34;;;;;;;;;;;11.70;99.90;;;;;;5104325;28;19920;-74
2022/10/18 05:57:01;;;;;;;;;;;11.80;99.90;;;;;;5105808;28;19995;-72
2022/10/18 05:59:27;;;;;;;;;;;11.80;99.90;;;;;;5090634;28;19927;-71
2022/10/18 06:01:55;;;;;;;;;;;11.80;99.90;;;;;;5085235;28;19984;-72
2022/10/18 06:04:22;;;;;;;;;;;11.80;99.90;;;;;;5094698;28;19920;-72
2022/10/18 06:06:48;;;;;;;;;;;11.90;99.90;;;;;;5105270;28;19983;-72
2022/10/18 06:09:15;;;;;;;;;;;11.90;99.90;;;;;;5105492;28;19920;-71
2022/10/18 06:11:42;;;;;;;;;;;11.90;99.90;;;;;;5105292;28;19926;-71
2022/10/18 06:14:09;;;;;;;;;;;12.00;99.90;;;;;;5104904;28;19926;-72
2022/10/18 06:16:36;;;;;;;;;;;12.00;99.90;;;;;;5085104;28;19927;-71
2022/10/18 06:19:04;;;;;;;;;;;12.00;99.90;;;;;;5079242;28;19987;-72
2022/10/18 06:21:30;;;;;;;;;;;12.00;99.90;;;;;;5073058;28;19955;-72
2022/10/18 06:23:58;;;;;;;;;;;12.10;99.90;;;;;;5084474;28;19991;-72
2022/10/18 06:26:26;;;;;;;;;;;12.10;99.90;;;;;;5084096;28;19927;-71
2022/10/18 06:28:53;;;;;;;;;;;12.10;99.90;;;;;;5083429;28;19926;-72
2022/10/18 06:31:20;;;;;;;;;;;12.20;99.90;;;;;;5093302;28;19920;-73
2022/10/18 06:33:47;;;;;;;;;;;12.20;99.90;;;;;;5084246;28;19920;-72
2022/10/18 06:36:16;;;;;;;;;;;12.30;99.90;;;;;;5083455;28;20158;-72
2022/10/18 06:38:42;;;;;;;;;;;12.30;99.90;;;;;;5087570;28;20214;-72
2022/10/18 06:41:09;;;;;;;;;;;12.40;99.90;;;;;;5104310;28;20000;-73
2022/10/18 06:43:36;;;;;;;;;;;12.40;99.90;;;;;;5104202;28;19920;-72
2022/10/18 06:46:03;;;;;;;;;;;12.40;99.90;;;;;;5100367;28;19983;-72
2022/10/18 06:48:30;;;;;;;;;;;12.50;99.90;;;;;;5083712;28;19920;-72
2022/10/18 06:50:57;;;;;;;;;;;12.50;99.90;;;;;;5083785;28;19932;-72
2022/10/18 06:53:26;;;;;;;;;;;12.50;99.90;;;;;;5083711;28;19920;-72
2022/10/18 06:55:53;;;;;;;;;;;12.50;99.90;;;;;;5083124;28;19991;-72
2022/10/18 06:58:20;;;;;;;;;;;12.50;99.90;;;;;;5083799;28;19921;-69
2022/10/18 07:00:46;;;;;;;;;;;12.50;99.90;;;;;;5090824;28;19989;-69
2022/10/18 07:03:13;;;;;;;;;;;12.50;99.90;;;;;;5102008;28;19965;-69
2022/10/18 07:05:39;;;;;;;;;;;12.60;99.90;;;;;;5103331;28;19920;-70
2022/10/18 07:08:06;;;;;;;;;;;12.60;99.90;;;;;;5093340;28;19920;-70
2022/10/18 07:10:34;;;;;;;;;;;12.60;99.90;;;;;;5083645;28;20068;-70
2022/10/18 07:13:01;;;;;;;;;;;12.60;99.90;;;;;;5083455;28;19927;-69
2022/10/18 07:15:28;;;;;;;;;;;12.60;99.90;;;;;;5082828;28;20224;-70
2022/10/18 07:17:54;;;;;;;;;;;12.70;99.90;;;;;;5090542;28;19963;-70
2022/10/18 07:20:21;;;;;;;;;;;12.70;99.90;;;;;;5103547;28;20271;-69
2022/10/18 07:22:47;;;;;;;;;;;12.80;99.90;;;;;;5093585;28;19988;-70
2022/10/18 07:25:14;;;;;;;;;;;12.80;99.90;;;;;;5083020;28;19984;-69
2022/10/18 07:27:42;;;;;;;;;;;12.90;99.90;;;;;;5083318;28;19999;-70
2022/10/18 07:30:10;;;;;;;;;;;12.90;99.90;;;;;;5083201;28;19921;-69
2022/10/18 07:32:36;;;;;;;;;;;13.00;99.90;;;;;;5090005;28;19927;-70
2022/10/18 07:35:03;;;;;;;;;;;13.20;99.90;;;;;;5103340;28;19926;-70
2022/10/18 07:37:30;;;;;;;;;;;13.30;99.90;;;;;;5087179;28;19927;-70
2022/10/18 07:39:57;;;;;;;;;;;13.30;99.90;;;;;;5105643;28;19927;-70
2022/10/18 07:42:23;;;;;;;;;;;13.50;99.90;;;;;;5109944;28;19920;-69
2022/10/18 07:44:51;;;;;;;;;;;13.60;99.90;;;;;;5109797;28;19926;-70
2022/10/18 07:47:18;;;;;;;;;;;13.80;99.90;;;;;;5098647;28;19920;-69
2022/10/18 07:49:44;;;;;;;;;;;13.90;99.90;;;;;;5089445;28;19920;-70
2022/10/18 07:52:11;;;;;;;;;;;14.10;99.90;;;;;;5091569;28;19988;-70
2022/10/18 07:54:38;;;;;;;;;;;14.30;99.90;;;;;;5109463;28;20258;-70
2022/10/18 07:57:04;;;;;;;;;;;14.40;99.90;;;;;;5109988;28;19983;-70
2022/10/18 07:59:31;;;;;;;;;;;14.50;99.90;;;;;;5093825;28;20018;-70
2022/10/18 08:01:59;;;;;;;;;;;14.70;99.90;;;;;;5089542;28;19921;-70
2022/10/18 08:04:26;;;;;;;;;;;14.80;99.90;;;;;;5089909;28;19927;-70
2022/10/18 08:06:52;;;;;;;;;;;14.90;99.90;;;;;;5091501;28;19956;-69
2022/10/18 08:09:19;;;;;;;;;;;15.00;99.90;;;;;;5090190;28;19979;-70
2022/10/18 08:11:46;;;;;;;;;;;15.10;99.90;;;;;;5090171;28;19979;-70
2022/10/18 08:14:12;;;;;;;;;;;15.20;99.90;;;;;;5089849;28;19984;-70
2022/10/18 08:16:39;;;;;;;;;;;15.30;99.90;;;;;;5089406;28;19920;-70
2022/10/18 08:19:07;;;;;;;;;;;15.30;99.90;;;;;;5090120;28;19988;-70
2022/10/18 08:21:33;;;;;;;;;;;15.40;99.90;;;;;;5089886;28;20234;-70
2022/10/18 08:24:00;;;;;;;;;;;15.50;99.90;;;;;;5089607;28;19921;-70
2022/10/18 08:26:26;;;;;;;;;;;15.60;99.90;;;;;;5100723;28;19920;-70
2022/10/18 08:28:53;;;;;;;;;;;15.80;99.90;;;;;;5110188;28;19920;-69
2022/10/18 08:31:20;;;;;;;;;;;16.10;99.90;;;;;;5109802;28;20229;-70
2022/10/18 08:33:47;;;;;;;;;;;16.30;99.90;;;;;;5110423;28;19983;-70
2022/10/18 08:36:16;;;;;;;;;;;16.50;99.90;;;;;;5109795;28;19919;-70
2022/10/18 08:38:43;;;;;;;;;;;16.70;99.90;;;;;;5109363;28;19955;-70
2022/10/18 08:41:36;;;;;;;;;;;16.80;99.90;;;;;;5100200;28;19927;-70
2022/10/18 08:44:06;;;;;;;;;;;16.80;99.90;;;;;;5067517;28;19936;-70
2022/10/18 08:46:34;;;;;;;;;;;16.90;99.90;;;;;;5089319;28;20061;-70
2022/10/18 08:49:01;;;;;;;;;;;17.00;99.90;;;;;;5089760;28;19942;-70
2022/10/18 08:51:32;;;;;;;;;;;17.00;99.90;;;;;;5086520;28;19927;-70
2022/10/18 08:54:02;;;;;;;;;;;17.00;99.90;;;;;;5093137;28;19979;-71
2022/10/18 08:56:29;;;;;;;;;;;17.20;99.90;;;;;;5095618;28;19984;-70
2022/10/18 08:58:55;;;;;;;;;;;17.30;99.90;;;;;;5086923;28;19983;-70
2022/10/18 09:01:27;;;;;;;;;;;17.40;99.90;;;;;;5097787;28;19991;-70
2022/10/18 09:04:00;;;;;;;;;;;17.50;99.90;;;;;;5086015;28;19921;-71
2022/10/18 09:06:30;;;;;;;;;;;17.60;99.90;;;;;;5083195;28;19929;-70
2022/10/18 09:09:03;;;;;;;;;;;17.70;99.90;;;;;;5084847;28;19987;-70
2022/10/18 09:11:38;;;;;;;;;;;17.80;99.90;;;;;;5083094;28;19920;-70
2022/10/18 09:14:16;;;;;;;;;;;17.90;99.90;;;;;;5082530;28;19920;-71
2022/10/18 09:16:45;;;;;;;;;;;18.00;99.90;;;;;;5081975;28;19968;-71
2022/10/18 09:19:17;;;;;;;;;;;18.10;99.90;;;;;;5084450;28;19924;-71
2022/10/18 09:21:49;;;;;;;;;;;18.20;99.90;;;;;;5082477;28;19920;-71
2022/10/18 09:24:22;;;;;;;;;;;18.30;99.90;;;;;;5084630;28;19995;-71
2022/10/18 09:26:49;;;;;;;;;;;18.50;99.90;;;;;;5085322;28;19943;-70
2022/10/18 09:29:25;;;;;;;;;;;18.50;99.90;;;;;;5084963;28;19987;-71
2022/10/18 09:31:55;;;;;;;;;;;18.60;99.90;;;;;;5083314;28;20108;-70
2022/10/18 09:34:28;;;;;;;;;;;18.70;99.90;;;;;;5084980;28;19920;-71
2022/10/18 09:36:57;;;;;;;;;;;18.70;99.90;;;;;;5084663;28;19921;-71
2022/10/18 09:39:29;;;;;;;;;;;18.80;99.90;;;;;;5081957;28;19920;-71
2022/10/18 09:41:57;;;;;;;;;;;18.80;99.90;;;;;;5084908;28;19921;-71
2022/10/18 09:44:25;;;;;;;;;;;18.90;99.90;;;;;;5081403;28;19920;-71
2022/10/18 09:46:55;;;;;;;;;;;18.90;99.90;;;;;;5075999;28;19987;-71
2022/10/18 09:49:24;;;;;;;;;;;18.80;99.90;;;;;;5083213;28;19943;-70
2022/10/18 09:51:51;;;;;;;;;;;18.90;99.90;;;;;;5084702;28;19980;-72
2022/10/18 09:54:24;;;;;;;;;;;18.90;99.90;;;;;;5084380;28;20115;-71
2022/10/18 09:56:54;;;;;;;;;;;18.80;99.90;;;;;;5081827;28;19995;-71
2022/10/18 09:59:31;;;;;;;;;;;18.80;99.90;;;;;;5082863;28;19991;-71
2022/10/18 10:01:57;;;;;;;;;;;18.70;99.90;;;;;;5083159;28;19920;-71
2022/10/18 10:04:24;;;;;;;;;;;18.70;99.90;;;;;;5083496;28;19988;-72
2022/10/18 10:06:51;;;;;;;;;;;18.70;99.90;;;;;;5083805;28;19927;-71
2022/10/18 10:09:21;;;;;;;;;;;18.70;99.90;;;;;;5081184;28;19927;-72
2022/10/18 10:11:54;;;;;;;;;;;18.60;99.90;;;;;;5080168;28;19928;-71
2022/10/18 10:14:24;;;;;;;;;;;18.60;99.90;;;;;;5083673;28;19925;-71
2022/10/18 10:16:51;;;;;;;;;;;18.60;99.90;;;;;;5083418;28;19920;-72
2022/10/18 10:19:19;;;;;;;;;;;18.60;99.90;;;;;;5083652;28;19920;-71
2022/10/18 10:21:47;;;;;;;;;;;18.50;99.90;;;;;;5080816;28;20096;-71
2022/10/18 10:24:21;;;;;;;;;;;18.50;99.90;;;;;;5083640;28;19983;-70
2022/10/18 10:26:47;;;;;;;;;;;18.50;99.90;;;;;;5080725;28;19927;-72
2022/10/18 10:29:29;;;;;;;;;;;18.40;99.90;;;;;;5084152;28;19932;-71
2022/10/18 10:32:01;;;;;;;;;;;18.40;99.90;;;;;;5082736;28;19927;-71
2022/10/18 10:34:29;;;;;;;;;;;18.40;99.90;;;;;;5081088;28;19920;-70
2022/10/18 10:36:55;;;;;;;;;;;18.50;99.90;;;;;;5082299;28;20023;-71
2022/10/18 10:39:23;;;;;;;;;;;18.50;99.90;;;;;;5081629;28;19935;-73
2022/10/18 10:41:51;;;;;;;;;;;18.50;99.90;;;;;;5083432;28;19948;-71
2022/10/18 10:44:18;;;;;;;;;;;18.60;99.90;;;;;;5081544;28;19927;-71
2022/10/18 10:46:47;;;;;;;;;;;18.70;99.90;;;;;;5082509;28;19927;-70
2022/10/18 10:49:19;;;;;;;;;;;18.70;99.90;;;;;;5083121;28;19928;-71
2022/10/18 10:51:46;;;;;;;;;;;18.60;99.90;;;;;;5082322;28;20111;-71
2022/10/18 10:54:15;;;;;;;;;;;18.50;99.90;;;;;;5084003;28;20325;-70
2022/10/18 10:56:51;;;;;;;;;;;18.50;99.90;;;;;;5081404;28;19921;-71
2022/10/18 10:59:19;;;;;;;;;;;18.50;99.90;;;;;;5081623;28;19983;-71
2022/10/18 11:01:50;;;;;;;;;;;18.40;99.90;;;;;;5082907;28;19928;-72
2022/10/18 11:04:26;;;;;;;;;;;18.20;99.90;;;;;;5084598;28;20349;-71
2022/10/18 11:07:03;;;;;;;;;;;18.10;99.90;;;;;;5080430;28;19920;-71
2022/10/18 11:09:48;;;;;;;;;;;18.00;99.90;;;;;;5080518;28;19921;-70
2022/10/18 11:12:20;;;;;;;;;;;18.20;99.90;;;;;;5081166;28;20085;-71
2022/10/18 11:14:50;;;;;;;;;;;18.20;99.90;;;;;;5078971;28;19934;-71
2022/10/18 11:17:23;;;;;;;;;;;18.10;99.90;;;;;;5080927;28;19920;-71
2022/10/18 11:20:02;;;;;;;;;;;18.00;99.90;;;;;;5080310;28;19962;-71
2022/10/18 11:22:32;;;;;;;;;;;17.90;99.90;;;;;;5082659;28;19935;-71
2022/10/18 11:24:58;;;;;;;;;;;17.70;99.90;;;;;;5079244;28;19929;-71
2022/10/18 11:27:27;;;;;;;;;;;17.60;99.90;;;;;;5082604;28;19991;-71
2022/10/18 11:30:14;;;;;;;;;;;17.60;99.90;;;;;;5084965;28;20123;-71
2022/10/18 11:32:42;;;;;;;;;;;17.50;99.90;;;;;;5072705;28;19942;-70
2022/10/18 11:35:21;;;;;;;;;;;17.40;99.90;;;;;;5083857;28;20115;-70
2022/10/18 11:37:56;;;;;;;;;;;17.30;99.90;;;;;;5082161;28;19984;-71
2022/10/18 11:40:35;;;;;;;;;;;17.30;99.90;;;;;;5083623;28;19983;-71
2022/10/18 11:43:06;;;;;;;;;;;17.30;99.90;;;;;;5082387;28;19921;-71
2022/10/18 11:45:37;;;;;;;;;;;17.30;99.90;;;;;;5081848;28;20294;-71
2022/10/18 11:48:12;;;;;;;;;;;17.50;99.90;;;;;;5082130;28;19932;-71
2022/10/18 11:50:43;;;;;;;;;;;17.60;99.90;;;;;;5085293;28;20903;-71
2022/10/18 11:53:17;;;;;;;;;;;17.70;99.90;;;;;;5082836;28;20115;-71
2022/10/18 11:55:56;;;;;;;;;;;17.80;99.90;;;;;;5081642;28;19920;-71
2022/10/18 11:58:37;;;;;;;;;;;17.80;99.90;;;;;;5077847;28;19929;-70
2022/10/18 12:01:07;;;;;;;;;;;17.90;99.90;;;;;;5082467;28;20204;-71
2022/10/18 12:03:37;;;;;;;;;;;18.10;99.90;;;;;;5082885;28;19920;-70
2022/10/18 12:06:07;;;;;;;;;;;18.10;99.90;;;;;;5082725;28;19996;-71
2022/10/18 12:08:36;;;;;;;;;;;18.20;99.90;;;;;;5063252;28;19988;-70
2022/10/18 12:11:06;;;;;;;;;;;18.20;99.90;;;;;;5063132;28;19920;-71
2022/10/18 12:13:34;;;;;;;;;;;18.20;99.90;;;;;;5067132;28;19983;-70
2022/10/18 12:16:02;;;;;;;;;;;18.30;99.90;;;;;;5101403;28;19920;-71
2022/10/18 12:18:30;;;;;;;;;;;18.40;99.90;;;;;;5083049;28;19967;-73
2022/10/18 12:20:57;;;;;;;;;;;18.60;99.90;;;;;;5082817;28;19920;-71
2022/10/18 12:23:33;;;;;;;;;;;18.90;99.90;;;;;;5083224;28;19927;-71
2022/10/18 12:26:02;;;;;;;;;;;18.90;99.90;;;;;;5083230;28;19920;-70
2022/10/18 12:28:33;;;;;;;;;;;19.00;99.90;;;;;;5087165;28;19927;-70
2022/10/18 12:31:05;;;;;;;;;;;19.00;99.90;;;;;;5080737;28;19927;-70
2022/10/18 12:33:37;;;;;;;;;;;19.00;99.90;;;;;;5066746;28;19921;-71
2022/10/18 12:36:13;;;;;;;;;;;18.90;99.90;;;;;;5066627;28;19925;-74
2022/10/18 12:38:42;;;;;;;;;;;18.80;99.90;;;;;;5076015;28;19921;-73
2022/10/18 12:41:16;;;;;;;;;;;18.70;99.90;;;;;;5086661;28;19927;-73
2022/10/18 12:43:50;;;;;;;;;;;18.70;99.90;;;;;;5094135;28;19919;-73
2022/10/18 12:46:17;;;;;;;;;;;18.60;99.90;;;;;;5107566;28;19920;-74
2022/10/18 12:48:45;;;;;;;;;;;18.50;99.90;;;;;;5094857;28;19958;-71
2022/10/18 12:51:14;;;;;;;;;;;18.50;99.90;;;;;;5086404;28;19920;-71
2022/10/18 12:53:44;;;;;;;;;;;18.50;99.90;;;;;;5086472;28;19958;-70
2022/10/18 12:56:37;;;;;;;;;;;18.50;99.90;;;;;;5065361;28;20255;-70
2022/10/18 12:59:25;;;;;;;;;;;18.60;99.90;;;;;;5041079;28;20120;-71
2022/10/18 13:02:09;;;;;;;;;;;18.70;99.90;;;;;;5064860;28;20209;-70
2022/10/18 13:04:37;;;;;;;;;;;18.70;99.90;;;;;;5084515;28;19920;-71
2022/10/18 13:07:18;;;;;;;;;;;18.80;99.90;;;;;;5106216;28;19926;-71
2022/10/18 13:10:00;;;;;;;;;;;18.80;99.90;;;;;;5106569;28;20081;-71
2022/10/18 13:12:49;;;;;;;;;;;18.90;99.90;;;;;;5105659;28;19987;-70
2022/10/18 13:15:23;;;;;;;;;;;19.00;99.90;;;;;;5105515;28;19920;-70
2022/10/18 13:17:52;;;;;;;;;;;19.10;99.90;;;;;;5089004;28;19920;-70
2022/10/18 13:20:23;;;;;;;;;;;19.30;99.90;;;;;;5085931;28;19983;-70
2022/10/18 13:22:57;;;;;;;;;;;19.10;99.90;;;;;;5085522;28;19920;-70
2022/10/18 13:25:27;;;;;;;;;;;19.20;99.90;;;;;;5085453;28;20119;-70
2022/10/18 13:27:57;;;;;;;;;;;19.20;99.90;;;;;;5085972;28;19920;-72
2022/10/18 13:30:31;;;;;;;;;;;19.10;99.90;;;;;;5089401;28;19983;-71
2022/10/18 13:33:01;;;;;;;;;;;19.10;99.90;;;;;;5105891;28;19979;-70
2022/10/18 13:35:55;;;;;;;;;;;19.00;99.90;;;;;;5105409;28;19959;-70
2022/10/18 13:38:30;;;;;;;;;;;18.90;99.90;;;;;;5068953;28;19924;-71
2022/10/18 13:41:00;;;;;;;;;;;18.70;99.90;;;;;;5096073;28;19943;-69
2022/10/18 13:43:47;;;;;;;;;;;18.70;99.90;;;;;;5085407;28;19921;-71
2022/10/18 13:46:15;;;;;;;;;;;18.60;99.90;;;;;;5079614;28;19927;-70
2022/10/18 13:48:46;;;;;;;;;;;18.60;99.90;;;;;;5085345;28;19921;-70
2022/10/18 13:51:27;;;;;;;;;;;18.50;99.90;;;;;;5084990;28;19958;-71
2022/10/18 13:53:59;;;;;;;;;;;18.40;99.90;;;;;;5082339;28;19992;-70
2022/10/18 13:56:39;;;;;;;;;;;18.40;99.90;;;;;;5083483;28;19987;-71
2022/10/18 13:59:13;;;;;;;;;;;18.30;99.90;;;;;;5084209;28;19920;-70
2022/10/18 14:01:47;;;;;;;;;;;18.30;99.90;;;;;;5064844;28;19921;-71
2022/10/18 14:04:31;;;;;;;;;;;18.30;99.90;;;;;;5080791;28;19983;-69
2022/10/18 14:06:59;;;;;;;;;;;18.20;99.90;;;;;;5064898;28;19983;-70
2022/10/18 14:09:26;;;;;;;;;;;18.20;99.90;;;;;;5080143;28;19921;-69
2022/10/18 14:11:55;;;;;;;;;;;18.10;99.90;;;;;;5075310;28;19921;-70
2022/10/18 14:14:28;;;;;;;;;;;18.10;99.90;;;;;;5087399;28;20107;-69
2022/10/18 14:17:00;;;;;;;;;;;18.10;99.90;;;;;;5084257;28;19920;-72
2022/10/18 14:19:29;;;;;;;;;;;18.20;99.90;;;;;;5084373;28;19975;-70
2022/10/18 14:21:59;;;;;;;;;;;18.20;99.90;;;;;;5083986;28;19921;-70
2022/10/18 14:24:27;;;;;;;;;;;18.20;99.90;;;;;;5084403;28;19927;-70
2022/10/18 14:27:26;;;;;;;;;;;18.20;99.90;;;;;;5083786;28;20279;-70
2022/10/18 14:30:07;;;;;;;;;;;18.20;99.90;;;;;;4996677;28;19944;-70